createdAt,value
2022-11-05T00:01:42.253Z,26.80
2022-11-05T00:04:28.261Z,25.20
2022-11-05T00:07:20.356Z,25.90
2022-11-05T00:09:50.813Z,26.10
2022-11-05T00:12:33.225Z,25.60
2022-11-05T00:15:18.313Z,25.80
2022-11-05T00:17:48.083Z,25.20
2022-11-05T00:20:17.846Z,25.00
2022-11-05T00:23:00.093Z,25.80
2022-11-05T00:25:30.356Z,26.20
2022-11-05T00:28:04.038Z,26.50
2022-11-05T00:30:36.367Z,25.90
2022-11-05T00:33:06.232Z,26.60
2022-11-05T00:35:36.018Z,27.30
2022-11-05T00:38:05.753Z,27.10
2022-11-05T00:40:35.535Z,27.90
2022-11-05T00:43:17.854Z,28.30
2022-11-05T00:45:50.217Z,29.00
2022-11-05T00:48:32.483Z,29.80
2022-11-05T00:51:02.232Z,30.30
2022-11-05T00:53:32.057Z,30.30
2022-11-05T00:56:02.076Z,30.80
2022-11-05T00:58:32.380Z,31.60
2022-11-05T01:01:05.405Z,32.80
2022-11-05T01:03:37.945Z,32.90
2022-11-05T01:06:13.539Z,32.90
2022-11-05T01:08:44.770Z,32.80
2022-11-05T01:11:33.147Z,32.80
2022-11-05T01:14:05.106Z,33.30
2022-11-05T01:16:37.604Z,34.50
2022-11-05T01:19:09.012Z,34.10
2022-11-05T01:21:38.911Z,33.80
2022-11-05T01:24:10.461Z,33.90
2022-11-05T01:26:40.223Z,33.70
2022-11-05T01:29:10.041Z,34.50
2022-11-05T01:31:42.438Z,34.50
2022-11-05T01:34:12.199Z,34.00
2022-11-05T01:36:41.959Z,35.50
2022-11-05T01:39:11.701Z,35.90
2022-11-05T01:41:41.461Z,35.80
2022-11-05T01:44:41.156Z,35.60
2022-11-05T01:47:26.686Z,35.00
2022-11-05T01:49:57.394Z,36.00
2022-11-05T01:52:27.873Z,35.80
2022-11-05T01:54:58.094Z,36.20
2022-11-05T01:57:28.172Z,36.60
2022-11-05T02:00:02.255Z,36.60
2022-11-05T02:02:34.963Z,37.20
2022-11-05T02:05:08.666Z,36.10
2022-11-05T02:07:38.905Z,37.20
2022-11-05T02:10:13.703Z,37.10
2022-11-05T02:12:47.193Z,37.20
2022-11-05T02:15:20.768Z,37.00
2022-11-05T02:18:01.365Z,37.20
2022-11-05T02:20:41.225Z,37.10
2022-11-05T02:23:48.241Z,37.20
2022-11-05T02:26:48.009Z,37.80
2022-11-05T02:29:41.404Z,36.70
2022-11-05T02:32:21.783Z,37.10
2022-11-05T02:34:58.618Z,37.20
2022-11-05T02:37:40.661Z,37.30
2022-11-05T02:40:20.729Z,37.30
2022-11-05T02:43:01.132Z,37.80
2022-11-05T02:45:43.180Z,37.50
2022-11-05T02:48:23.677Z,38.20
2022-11-05T02:50:59.509Z,38.70
2022-11-05T02:53:37.138Z,38.50
2022-11-05T02:56:12.144Z,38.50
2022-11-05T02:58:41.902Z,39.00
2022-11-05T03:01:13.993Z,38.90
2022-11-05T03:03:48.679Z,39.40
2022-11-05T03:06:54.669Z,40.10
2022-11-05T03:09:37.303Z,40.50
2022-11-05T03:12:18.567Z,41.30
2022-11-05T03:14:58.531Z,41.00
2022-11-05T03:17:36.672Z,41.40
2022-11-05T03:20:19.102Z,41.40
2022-11-05T03:22:54.393Z,41.40
2022-11-05T03:25:26.828Z,42.30
2022-11-05T03:28:00.961Z,42.80
2022-11-05T03:30:30.779Z,43.40
2022-11-05T03:33:05.991Z,43.40
2022-11-05T03:35:42.522Z,43.30
2022-11-05T03:38:18.183Z,43.60
2022-11-05T03:40:51.159Z,44.00
2022-11-05T03:43:23.625Z,43.90
2022-11-05T03:45:58.717Z,44.00
2022-11-05T03:48:33.397Z,44.40
2022-11-05T03:51:11.080Z,44.80
2022-11-05T03:53:46.184Z,44.70
2022-11-05T03:56:22.554Z,45.40
2022-11-05T03:58:58.511Z,45.90
2022-11-05T04:01:29.348Z,46.10
2022-11-05T04:03:59.238Z,47.00
2022-11-05T04:06:44.073Z,47.60
2022-11-05T04:09:26.319Z,48.40
2022-11-05T04:12:08.533Z,48.70
2022-11-05T04:14:39.459Z,48.60
2022-11-05T04:17:06.630Z,49.30
2022-11-05T04:19:49.539Z,49.60
2022-11-05T04:22:34.462Z,49.10
2022-11-05T04:25:04.045Z,49.50
2022-11-05T04:27:33.927Z,48.90
2022-11-05T04:30:16.241Z,49.50
2022-11-05T04:32:46.031Z,49.50
2022-11-05T04:35:15.758Z,49.60
2022-11-05T04:37:48.085Z,49.50
2022-11-05T04:40:18.115Z,50.30
2022-11-05T04:42:47.912Z,50.30
2022-11-05T04:45:17.866Z,50.90
2022-11-05T04:47:47.609Z,51.20
2022-11-05T04:50:17.610Z,51.70
2022-11-05T04:52:49.955Z,51.60
2022-11-05T04:55:19.946Z,51.50
2022-11-05T04:57:51.517Z,51.60
2022-11-05T05:00:22.605Z,51.30
2022-11-05T05:02:52.547Z,51.20
2022-11-05T05:05:23.097Z,51.20
2022-11-05T05:07:55.423Z,51.50
2022-11-05T05:10:25.187Z,51.40
2022-11-05T05:12:54.934Z,51.50
2022-11-05T05:15:24.667Z,51.50
2022-11-05T05:17:54.662Z,51.80
2022-11-05T05:20:36.974Z,51.50
2022-11-05T05:23:09.520Z,52.70
2022-11-05T05:25:39.455Z,51.60
2022-11-05T05:28:09.279Z,51.80
2022-11-05T05:30:39.056Z,51.70
2022-11-05T05:33:08.997Z,51.90
2022-11-05T05:35:39.120Z,51.40
2022-11-05T05:38:11.488Z,51.90
2022-11-05T05:40:41.249Z,51.40
2022-11-05T05:43:11.236Z,51.60
2022-11-05T05:45:41.142Z,51.20
2022-11-05T05:48:10.917Z,51.70
2022-11-05T05:50:40.650Z,51.50
2022-11-05T05:53:13.177Z,51.20
2022-11-05T05:55:43.145Z,50.80
2022-11-05T05:58:16.148Z,51.10
2022-11-05T06:00:45.912Z,50.40
2022-11-05T06:03:15.656Z,50.40
2022-11-05T06:05:45.450Z,50.90
2022-11-05T06:08:17.791Z,51.20
2022-11-05T06:10:53.729Z,50.60
2022-11-05T06:13:23.601Z,50.20
2022-11-05T06:15:53.382Z,49.70
2022-11-05T06:18:23.120Z,49.40
2022-11-05T06:20:53.117Z,49.40
2022-11-05T06:23:25.642Z,49.00
2022-11-05T06:25:57.856Z,49.00
2022-11-05T06:28:27.636Z,48.10
2022-11-05T06:30:57.609Z,48.00
2022-11-05T06:33:27.674Z,47.40
2022-11-05T06:35:57.759Z,46.40
2022-11-05T06:38:30.507Z,47.00
2022-11-05T06:41:07.240Z,46.60
2022-11-05T06:43:40.084Z,46.60
2022-11-05T06:46:10.394Z,46.50
2022-11-05T06:48:40.584Z,46.30
2022-11-05T06:51:11.333Z,46.00
2022-11-05T06:53:43.647Z,45.60
2022-11-05T06:56:13.529Z,46.40
2022-11-05T06:58:43.331Z,46.60
2022-11-05T07:01:13.449Z,45.30
2022-11-05T07:03:45.091Z,45.50
2022-11-05T07:06:14.870Z,44.60
2022-11-05T07:08:47.302Z,43.70
2022-11-05T07:11:17.090Z,42.30
2022-11-05T07:13:46.853Z,43.60
2022-11-05T07:16:16.632Z,42.40
2022-11-05T07:18:46.365Z,42.00
2022-11-05T07:21:16.215Z,41.40
2022-11-05T07:23:48.568Z,41.40
2022-11-05T07:26:21.043Z,42.80
2022-11-05T07:28:50.810Z,43.50
2022-11-05T07:31:20.578Z,43.50
2022-11-05T07:33:50.343Z,44.00
2022-11-05T07:36:20.136Z,43.90
2022-11-05T07:38:57.394Z,44.30
2022-11-05T07:41:29.894Z,44.60
2022-11-05T07:43:59.711Z,45.20
2022-11-05T07:46:29.501Z,45.10
2022-11-05T07:48:59.313Z,44.40
2022-11-05T07:51:29.119Z,44.60
2022-11-05T07:54:01.499Z,44.10
2022-11-05T07:56:31.312Z,45.30
2022-11-05T07:59:01.297Z,45.40
2022-11-05T08:01:31.464Z,44.10
2022-11-05T08:04:01.325Z,44.40
2022-11-05T08:06:31.174Z,45.20
2022-11-05T08:09:03.551Z,45.20
2022-11-05T08:11:35.220Z,44.00
2022-11-05T08:14:04.931Z,44.00
2022-11-05T08:16:34.702Z,44.00
2022-11-05T08:19:04.759Z,41.50
2022-11-05T08:21:34.623Z,42.80
2022-11-05T08:24:07.405Z,42.70
2022-11-05T08:26:37.224Z,42.50
2022-11-05T08:29:07.027Z,43.10
2022-11-05T08:31:37.157Z,43.00
2022-11-05T08:34:07.559Z,41.70
2022-11-05T08:36:38.104Z,41.80
2022-11-05T08:39:15.784Z,42.80
2022-11-05T08:41:47.190Z,40.90
2022-11-05T08:44:16.993Z,41.30
2022-11-05T08:46:46.845Z,41.00
2022-11-05T08:49:16.736Z,40.10
2022-11-05T08:51:46.980Z,39.90
2022-11-05T08:54:19.307Z,39.90
2022-11-05T08:56:49.070Z,40.10
2022-11-05T08:59:19.079Z,38.00
2022-11-05T09:01:50.654Z,39.10
2022-11-05T09:04:20.542Z,40.10
2022-11-05T09:06:50.343Z,38.40
2022-11-05T09:09:22.680Z,39.20
2022-11-05T09:14:42.666Z,41.20
2022-11-05T09:17:19.386Z,42.40
2022-11-05T09:19:49.457Z,41.00
2022-11-05T09:22:19.514Z,41.10
2022-11-05T09:24:51.845Z,42.10
2022-11-05T09:27:21.667Z,40.90
2022-11-05T09:29:51.458Z,40.90
2022-11-05T09:32:23.167Z,40.10
2022-11-05T09:34:53.107Z,40.70
2022-11-05T09:37:22.944Z,39.40
2022-11-05T09:39:55.335Z,38.20
2022-11-05T09:42:28.902Z,36.00
2022-11-05T09:45:02.010Z,38.30
2022-11-05T09:47:36.739Z,39.00
2022-11-05T09:50:11.749Z,37.30
2022-11-05T09:52:41.635Z,35.10
2022-11-05T09:55:22.822Z,34.30
2022-11-05T09:57:57.226Z,29.80
2022-11-05T10:00:27.373Z,31.80
2022-11-05T10:02:59.961Z,29.80
2022-11-05T10:05:30.543Z,32.10
2022-11-05T10:08:02.431Z,34.80
2022-11-05T10:10:42.194Z,34.40
2022-11-05T10:13:21.923Z,32.80
2022-11-05T10:15:58.112Z,35.90
2022-11-05T10:18:31.426Z,32.90
2022-11-05T10:21:01.647Z,35.80
2022-11-05T10:23:32.424Z,36.30
2022-11-05T10:26:07.993Z,36.80
2022-11-05T10:28:38.309Z,37.90
2022-11-05T10:31:11.592Z,37.30
2022-11-05T10:33:44.799Z,39.90
2022-11-05T10:36:18.193Z,37.80
2022-11-05T10:38:48.238Z,37.80
2022-11-05T10:41:38.182Z,34.10
2022-11-05T10:44:19.156Z,34.60
2022-11-05T10:47:00.665Z,37.90
2022-11-05T10:49:45.944Z,37.90
2022-11-05T10:52:24.639Z,37.80
2022-11-05T10:54:57.587Z,39.20
2022-11-05T10:57:36.676Z,38.80
2022-11-05T11:00:31.048Z,37.10
2022-11-05T11:03:02.746Z,38.40
2022-11-05T11:05:35.690Z,35.90
2022-11-05T11:08:18.346Z,31.60
2022-11-05T11:10:53.107Z,31.30
2022-11-05T11:13:27.694Z,33.30
2022-11-05T11:15:57.419Z,32.40
2022-11-05T11:18:32.444Z,29.10
2022-11-05T11:21:15.329Z,33.10
2022-11-05T11:23:46.413Z,33.00
2022-11-05T11:26:16.459Z,35.00
2022-11-05T11:28:51.691Z,34.10
2022-11-05T11:31:25.747Z,33.50
2022-11-05T11:34:00.985Z,28.40
2022-11-05T11:36:37.032Z,26.70
2022-11-05T11:39:09.538Z,29.70
2022-11-05T11:41:42.541Z,28.80
2022-11-05T11:44:18.803Z,26.10
2022-11-05T11:46:52.028Z,21.50
2022-11-05T11:49:36.327Z,22.30
2022-11-05T11:52:12.095Z,20.10
2022-11-05T11:54:42.003Z,19.20
2022-11-05T11:57:24.445Z,20.40
2022-11-05T12:00:14.373Z,19.80
2022-11-05T12:03:09.643Z,22.10
2022-11-05T12:05:43.394Z,18.00
2022-11-05T12:08:32.994Z,16.60
2022-11-05T12:11:09.777Z,17.80
2022-11-05T12:14:02.230Z,17.80
2022-11-05T12:17:03.717Z,18.30
2022-11-05T12:20:04.443Z,12.20
2022-11-05T12:22:51.444Z,11.50
2022-11-05T12:25:29.070Z,10.10
2022-11-05T12:28:13.209Z,13.20
2022-11-05T12:30:51.562Z,13.40
2022-11-05T12:33:42.291Z,11.50
2022-11-05T12:36:21.834Z,11.70
2022-11-05T12:39:19.272Z,12.70
2022-11-05T12:41:53.686Z,11.60
2022-11-05T12:44:39.677Z,13.70
2022-11-05T12:47:21.432Z,14.00
2022-11-05T12:50:06.669Z,11.40
2022-11-05T12:53:04.115Z,11.10
2022-11-05T12:55:44.074Z,8.00
2022-11-05T12:58:20.984Z,7.40
2022-11-05T13:00:57.497Z,5.00
2022-11-05T13:03:40.951Z,8.00
2022-11-05T13:06:15.907Z,7.60
2022-11-05T13:08:54.780Z,3.90
2022-11-05T13:11:29.693Z,4.40
2022-11-05T13:14:07.621Z,5.20
2022-11-05T13:16:40.612Z,5.90
2022-11-05T13:19:20.102Z,4.20
2022-11-05T13:21:55.999Z,6.40
2022-11-05T13:24:29.832Z,6.10
2022-11-05T13:27:06.218Z,2.60
2022-11-05T13:29:41.240Z,3.00
2022-11-05T13:32:27.723Z,2.20
2022-11-05T13:34:58.660Z,1.50
2022-11-05T13:37:51.798Z,3.50
2022-11-05T13:40:25.580Z,1.60
2022-11-05T13:43:13.379Z,2.20
2022-11-05T13:46:05.808Z,3.50
2022-11-05T13:49:11.824Z,2.90
2022-11-05T13:51:52.158Z,3.90
2022-11-05T13:54:51.625Z,4.70
2022-11-05T13:57:51.610Z,4.10
2022-11-05T14:00:27.001Z,5.80
2022-11-05T14:02:59.681Z,4.40
2022-11-05T14:05:33.201Z,2.70
2022-11-05T14:08:05.027Z,4.10
2022-11-05T14:10:39.335Z,4.00
2022-11-05T14:13:23.508Z,3.90
2022-11-05T14:16:07.118Z,3.60
2022-11-05T14:18:41.497Z,3.20
2022-11-05T14:21:33.885Z,4.10
2022-11-05T14:24:26.558Z,4.00
2022-11-05T14:27:26.490Z,4.00
2022-11-05T14:29:56.350Z,4.70
2022-11-05T14:32:46.415Z,4.70
2022-11-05T14:35:39.166Z,3.80
2022-11-05T14:38:20.177Z,5.30
2022-11-05T14:40:50.875Z,6.10
2022-11-05T14:43:24.380Z,5.50
2022-11-05T14:46:00.604Z,6.00
2022-11-05T14:48:40.340Z,6.20
2022-11-05T14:51:27.602Z,7.20
2022-11-05T14:54:08.169Z,7.20
2022-11-05T14:56:50.551Z,8.00
2022-11-05T14:59:37.873Z,8.30
2022-11-05T15:02:14.627Z,8.30
2022-11-05T15:04:47.980Z,8.80
2022-11-05T15:07:37.999Z,8.80
2022-11-05T15:10:15.821Z,9.00
2022-11-05T15:12:49.366Z,9.40
2022-11-05T15:15:25.257Z,9.60
2022-11-05T15:18:03.701Z,10.60
2022-11-05T15:20:42.221Z,10.50
2022-11-05T15:23:16.190Z,10.90
2022-11-05T15:25:53.518Z,11.90
2022-11-05T15:28:31.648Z,10.80
2022-11-05T15:31:04.054Z,10.70
2022-11-05T15:33:35.135Z,8.30
2022-11-05T15:36:23.239Z,8.80
2022-11-05T15:39:22.841Z,9.70
2022-11-05T15:41:43.123Z,8.30
2022-11-05T15:44:26.989Z,8.20
2022-11-05T15:47:19.421Z,8.30
2022-11-05T15:49:51.017Z,8.20
2022-11-05T15:52:25.198Z,8.20
2022-11-05T15:55:19.966Z,8.20
2022-11-05T15:57:52.283Z,7.40
2022-11-05T16:00:24.488Z,8.20
2022-11-05T16:02:57.272Z,8.10
2022-11-05T16:05:29.039Z,7.30
2022-11-05T16:08:04.365Z,8.10
2022-11-05T16:10:36.894Z,7.80
2022-11-05T16:13:34.696Z,8.10
2022-11-05T16:16:07.253Z,8.50
2022-11-05T16:18:39.100Z,9.30
2022-11-05T16:21:10.793Z,9.70
2022-11-05T16:23:56.314Z,9.70
2022-11-05T16:27:00.490Z,10.40
2022-11-05T16:29:26.530Z,10.70
2022-11-05T16:31:59.030Z,11.90
2022-11-05T16:34:31.736Z,11.80
2022-11-05T16:37:02.675Z,13.10
2022-11-05T16:39:35.725Z,12.80
2022-11-05T16:42:15.816Z,13.20
2022-11-05T16:44:45.608Z,12.80
2022-11-05T16:47:15.365Z,13.20
2022-11-05T16:49:45.134Z,13.80
2022-11-05T16:52:18.459Z,14.80
2022-11-05T16:54:51.037Z,15.40
2022-11-05T16:57:27.447Z,16.80
2022-11-05T16:59:58.133Z,17.90
2022-11-05T17:02:28.239Z,18.90
2022-11-05T17:04:58.173Z,19.30
2022-11-05T17:07:27.949Z,20.40
2022-11-05T17:10:00.316Z,21.50
2022-11-05T17:12:30.085Z,21.50
2022-11-05T17:14:59.837Z,22.00
2022-11-05T17:17:29.588Z,22.50
2022-11-05T17:19:59.337Z,23.10
2022-11-05T17:22:29.113Z,23.90
2022-11-05T17:25:01.457Z,24.90
2022-11-05T17:27:31.215Z,25.60
2022-11-05T17:30:01.157Z,25.80
2022-11-05T17:32:31.056Z,26.10
2022-11-05T17:35:00.882Z,26.60
2022-11-05T17:37:30.904Z,26.90
2022-11-05T17:40:03.370Z,28.00
2022-11-05T17:42:33.115Z,27.90
2022-11-05T17:45:03.120Z,28.00
2022-11-05T17:47:33.019Z,28.40
2022-11-05T17:50:02.834Z,29.10
2022-11-05T17:52:32.665Z,29.60
2022-11-05T17:55:05.481Z,30.10
2022-11-05T17:57:35.275Z,31.00
2022-11-05T18:00:05.046Z,31.40
2022-11-05T18:02:35.652Z,31.90
2022-11-05T18:05:05.502Z,33.00
2022-11-05T18:07:35.260Z,33.60
2022-11-05T18:10:08.574Z,34.10
2022-11-05T18:12:38.864Z,33.80
2022-11-05T18:15:09.899Z,34.10
2022-11-05T18:17:40.167Z,34.00
2022-11-05T18:20:18.465Z,34.30
2022-11-05T18:22:50.628Z,34.70
2022-11-05T18:25:23.123Z,35.40
2022-11-05T18:27:52.906Z,36.20
2022-11-05T18:30:22.752Z,36.60
2022-11-05T18:32:52.787Z,36.80
2022-11-05T18:35:22.590Z,36.90
2022-11-05T18:37:52.407Z,36.60
2022-11-05T18:40:24.759Z,36.60
2022-11-05T18:42:54.512Z,37.00
2022-11-05T18:45:29.420Z,37.50
2022-11-05T18:47:59.730Z,37.40
2022-11-05T18:50:29.595Z,37.90
2022-11-05T18:52:59.473Z,38.00
2022-11-05T18:55:31.875Z,37.80
2022-11-05T18:58:01.707Z,37.60
2022-11-05T19:00:32.118Z,37.50
2022-11-05T19:03:06.426Z,37.20
2022-11-05T19:05:36.525Z,36.90
2022-11-05T19:08:06.583Z,36.80
2022-11-05T19:10:42.428Z,36.90
2022-11-05T19:13:12.265Z,36.50
2022-11-05T19:15:45.149Z,36.90
2022-11-05T19:18:15.170Z,37.10
2022-11-05T19:20:45.243Z,36.50
2022-11-05T19:23:15.001Z,36.50
2022-11-05T19:25:47.371Z,36.20
2022-11-05T19:28:17.165Z,36.40
2022-11-05T19:30:47.480Z,36.60
2022-11-05T19:33:17.437Z,37.10
2022-11-05T19:35:47.205Z,37.00
2022-11-05T19:38:17.004Z,36.90
2022-11-05T19:40:49.675Z,36.80
2022-11-05T19:43:19.557Z,36.70
2022-11-05T19:45:49.363Z,37.20
2022-11-05T19:48:21.064Z,36.90
2022-11-05T19:50:51.060Z,37.20
2022-11-05T19:53:20.849Z,37.40
2022-11-05T19:55:53.192Z,37.30
2022-11-05T19:58:22.999Z,37.30
2022-11-05T20:00:52.734Z,37.30
2022-11-05T20:03:22.620Z,37.20
2022-11-05T20:05:52.555Z,36.90
2022-11-05T20:08:22.337Z,36.50
2022-11-05T20:10:59.035Z,36.70
2022-11-05T20:13:28.885Z,36.40
2022-11-05T20:15:58.908Z,36.20
2022-11-05T20:18:29.084Z,36.30
2022-11-05T20:21:07.019Z,36.00
2022-11-05T20:23:37.537Z,35.40
2022-11-05T20:26:10.522Z,35.40
2022-11-05T20:28:41.354Z,35.10
2022-11-05T20:31:12.678Z,35.00
2022-11-05T20:33:44.061Z,35.00
2022-11-05T20:36:17.603Z,34.90
2022-11-05T20:38:50.979Z,34.50
2022-11-05T20:41:23.851Z,34.00
2022-11-05T20:43:54.222Z,33.50
2022-11-05T20:46:25.078Z,33.60
2022-11-05T20:48:54.863Z,33.90
2022-11-05T20:51:26.275Z,33.40
2022-11-05T20:53:58.256Z,33.20
2022-11-05T20:56:32.997Z,33.10
2022-11-05T20:59:03.957Z,33.10
2022-11-05T21:01:35.940Z,33.40
2022-11-05T21:04:06.739Z,33.50
2022-11-05T21:06:37.497Z,33.30
2022-11-05T21:09:08.270Z,33.30
2022-11-05T21:11:52.895Z,33.10
2022-11-05T21:14:22.686Z,33.50
2022-11-05T21:16:52.788Z,33.70
2022-11-05T21:19:23.985Z,34.40
2022-11-05T21:21:53.815Z,34.40
2022-11-05T21:24:23.718Z,34.80
2022-11-05T21:26:56.407Z,34.90
2022-11-05T21:29:26.212Z,35.40
2022-11-05T21:31:56.626Z,36.10
2022-11-05T21:34:27.735Z,36.50
2022-11-05T21:36:57.483Z,37.60
2022-11-05T21:39:27.766Z,38.10
2022-11-05T21:42:00.116Z,38.70
2022-11-05T21:44:29.915Z,38.80
2022-11-05T21:47:04.473Z,39.80
2022-11-05T21:49:36.257Z,40.20
2022-11-05T21:52:19.139Z,40.60
2022-11-05T21:55:01.778Z,41.60
2022-11-05T21:57:46.765Z,42.00
2022-11-05T22:00:17.014Z,42.60
2022-11-05T22:02:46.939Z,42.90
2022-11-05T22:05:16.803Z,43.10
2022-11-05T22:07:46.698Z,43.30
2022-11-05T22:10:17.221Z,44.10
2022-11-05T22:12:49.624Z,44.60
2022-11-05T22:15:19.626Z,44.80
2022-11-05T22:17:52.580Z,45.30
2022-11-05T22:20:22.418Z,45.70
2022-11-05T22:22:52.501Z,45.80
2022-11-05T22:25:23.079Z,45.80
2022-11-05T22:27:55.475Z,46.10
2022-11-05T22:30:25.312Z,46.30
2022-11-05T22:32:55.227Z,46.60
2022-11-05T22:35:25.080Z,46.60
2022-11-05T22:37:54.865Z,46.60
2022-11-05T22:40:24.638Z,46.70
2022-11-05T22:42:57.023Z,46.60
2022-11-05T22:45:26.870Z,46.80
2022-11-05T22:47:56.683Z,47.10
2022-11-05T22:50:26.506Z,47.30
2022-11-05T22:52:56.249Z,47.40
2022-11-05T22:55:26.092Z,47.50
2022-11-05T22:57:58.517Z,47.70
2022-11-05T23:00:40.740Z,48.20
2022-11-05T23:03:10.637Z,48.60
2022-11-05T23:05:40.481Z,49.00
2022-11-05T23:08:22.791Z,49.20
2022-11-05T23:11:05.132Z,50.10
2022-11-05T23:13:37.501Z,50.80
2022-11-05T23:16:20.551Z,50.40
2022-11-05T23:19:02.785Z,50.60
2022-11-05T23:21:45.067Z,50.60
2022-11-05T23:24:15.468Z,51.50
2022-11-05T23:26:54.163Z,51.20
2022-11-05T23:29:29.626Z,50.80
2022-11-05T23:32:12.027Z,50.90
2022-11-05T23:34:42.103Z,51.40
2022-11-05T23:37:24.776Z,51.70
2022-11-05T23:39:54.918Z,51.70
2022-11-05T23:42:37.493Z,51.70
2022-11-05T23:45:23.969Z,51.90
2022-11-05T23:48:06.272Z,52.00
2022-11-05T23:50:39.748Z,52.10
2022-11-05T23:53:10.682Z,51.70
2022-11-05T23:55:40.818Z,51.70
2022-11-05T23:58:11.822Z,51.80
